Detall de PIREP

Printer-friendly versionPDF version

[2012/07/22 15:37:00]
Flight IATA:CT0001
Pilot Number:044
Company ICAO:CAT
Aircraft Type:BE58/A
PAX:4
Departing Airport: LEVC
Destination Airport: LEGE
Alternate Airport:LEBL
Online: VATSIM
Route:TATOS A34 SEROX H110 MAMUK
Flight Level:F160
No Slew and time accel
No pause
Crash detect
Detect pilot in Cockpit between each 30 and 45 minutes
15:37 Zero fuel Weight: 4591 Lbs, Fuel Weight: 848 Lbs
15:37 VATSIM:LEVC 221530Z 11012KT 070V150 9999 FEW035 29/16 Q1016 NOSIG
15:37 VATSIM:LEGE 221530Z 20008KT 170V250 9999 FEW030 27/09 Q1017
15:38 VOICE CATALONIAN
15:43 Parking Brakes off
16:03 Take-off
16:03 Take off Weight: 5432 Lbs
16:03 Wind: 107º @ 012 Knots Heading: 113º
16:03 POS N39º 29´ 33´´ W000º 29´ 26´´
16:04 Gear Up: 131 Knots
16:18 Wind:110º@031 Knots Heading: 353º Ground Speed: 200 Knots Altitude 11499 ft
16:24 TOC
16:24 Fuel Weight: 768 Lb
16:33 Wind:111º@008 Knots Heading: 017º Ground Speed: 211 Knots Altitude 16138 ft
16:48 Wind:235º@011 Knots Heading: 072º Ground Speed: 222 Knots Altitude 16151 ft
17:03 Wind:156º@021 Knots Heading: 079º Ground Speed: 210 Knots Altitude 16128 ft
17:11 TOD
17:11 Fuel Weight: 606 Lb
17:18 Wind:209º@029 Knots Heading: 090º Ground Speed: 168 Knots Altitude 14957 ft
17:33 Wind:210º@028 Knots Heading: 206º Ground Speed: 166 Knots Altitude 12962 ft
17:48 Wind:210º@025 Knots Heading: 193º Ground Speed: 161 Knots Altitude 12375 ft
17:54 Gear Down: 154 Knots
17:54 Gear Up: 153 Knots
17:54 Gear Down: 153 Knots
17:54 Gear Up: 155 Knots
17:55 Gear Down: 156 Knots
17:55 Gear Up: 145 Knots
18:03 Wind:217º@009 Knots Heading: 232º Ground Speed: 132 Knots Altitude 2509 ft
18:04 Gear Down: 129 Knots
18:04 Flaps:1 at 117 Knots
18:06 Flaps:2 at 102 Knots
18:07 TouchDown:Rate -102 ft/min Speed: 77 Knots
18:07 VATSIM:LEGE 221800Z 20011KT 170V230 9999 FEW040 25/12 Q1017
18:07 Land
18:07 Wind:217º@009 Knots
18:07 Heading: 195º
18:07 Flight Duration: 02:04
18:07 Landing Weight: 5073 Lbs
18:07 POS N41º 54´ 15´´ E002º 45´ 42´´
18:11 Parking brakes on
18:11 Block to Block Duration: 02:28
18:11 Final Fuel: 480 Lbls
18:11 Spent Fuel: 368 Lbls
18:11 Flight Length: 388 NM
18:11 TOD Land Length: 163 NM

Exportar CSV

Powered by Drupal - Modified by Danger4k